Time;durP1;ratioP1;P1;durP2;ratioP2;P2;SDS_P1;SDS_P2;PMS_P1;PMS_P2;Temp;Humidity;BMP_temperature;BMP_pressure;BME280_temperature;BME280_humidity;BME280_pressure;Samples;Min_cycle;Max_cycle;Signal;HPM_P1;HPM_P2
2021/12/23 00:01:21;;;;;;;17.65;10.98;;;;;;;-1.14;100.00;101576.69;5000277;28;20482;-83
2021/12/23 00:03:47;;;;;;;18.02;10.73;;;;;;;-1.13;100.00;101581.91;5000731;28;20041;-84
2021/12/23 00:06:12;;;;;;;21.60;11.45;;;;;;;-1.23;100.00;101571.09;4999531;28;20041;-83
2021/12/23 00:08:38;;;;;;;19.13;12.02;;;;;;;-1.12;100.00;101570.84;4998036;28;20022;-83
2021/12/23 00:11:03;;;;;;;17.40;10.93;;;;;;;-1.02;100.00;101582.41;4999291;28;20114;-83
2021/12/23 00:13:28;;;;;;;20.65;12.07;;;;;;;-1.05;100.00;101578.03;4999317;28;20022;-83
2021/12/23 00:19:14;;;;;;;19.13;11.45;;;;;;;-1.02;100.00;101567.91;4998759;28;20031;-83
2021/12/23 00:23:57;;;;;;;19.52;11.07;;;;;;;-1.17;100.00;101541.53;4998987;28;20497;-83
2021/12/23 00:26:22;;;;;;;20.08;12.13;;;;;;;-1.15;100.00;101549.25;4997944;28;20088;-83
2021/12/23 00:28:48;;;;;;;19.52;11.50;;;;;;;-1.16;100.00;101542.41;4999037;28;20030;-83
2021/12/23 00:31:15;;;;;;;18.00;11.55;;;;;;;-1.19;100.00;101535.41;5001008;28;20050;-83
2021/12/23 00:33:42;;;;;;;19.73;12.43;;;;;;;-1.19;100.00;101548.25;5000798;28;20066;-83
2021/12/23 00:36:09;;;;;;;22.90;12.55;;;;;;;-1.23;100.00;101535.19;4982955;28;20034;-83
2021/12/23 00:38:40;;;;;;;23.15;12.02;;;;;;;-1.25;100.00;101524.88;4999306;28;20478;-83
2021/12/23 00:41:08;;;;;;;25.33;11.88;;;;;;;-1.24;100.00;101518.94;4999759;28;20101;-83
2021/12/23 00:43:33;;;;;;;19.65;12.30;;;;;;;-1.39;100.00;101497.66;4999172;28;20398;-83
2021/12/23 00:46:00;;;;;;;17.58;11.80;;;;;;;-1.29;100.00;101512.72;4999372;28;20033;-82
2021/12/23 00:48:25;;;;;;;18.52;11.02;;;;;;;-1.31;100.00;101495.50;4999078;28;20026;-83
2021/12/23 00:50:51;;;;;;;20.15;12.32;;;;;;;-1.35;100.00;101494.44;4999623;28;20041;-83
2021/12/23 00:53:19;;;;;;;25.60;13.05;;;;;;;-1.40;100.00;101495.03;4999114;28;20111;-83
2021/12/23 00:55:51;;;;;;;19.13;11.80;;;;;;;-1.34;100.00;101506.47;4999310;28;20034;-83
2021/12/23 00:58:16;;;;;;;19.42;11.63;;;;;;;-1.39;100.00;101513.03;4998003;28;20045;-83
2021/12/23 01:00:43;;;;;;;17.92;12.20;;;;;;;-1.44;100.00;101507.72;4998928;28;20038;-83
2021/12/23 01:03:08;;;;;;;21.17;12.23;;;;;;;-1.53;100.00;101493.53;4998734;28;20022;-83
2021/12/23 01:05:33;;;;;;;20.48;13.50;;;;;;;-1.52;100.00;101492.75;4980760;28;20049;-83
2021/12/23 01:07:59;;;;;;;19.23;11.82;;;;;;;-1.53;100.00;101479.03;4998942;28;20025;-83
2021/12/23 01:10:25;;;;;;;20.98;12.82;;;;;;;-1.52;100.00;101485.06;4997441;28;20073;-83
2021/12/23 01:13:00;;;;;;;24.02;13.43;;;;;;;-1.65;100.00;101467.28;4998624;28;20031;-83
2021/12/23 01:18:07;;;;;;;24.10;13.70;;;;;;;-1.59;100.00;101457.34;4998455;28;20038;-83
2021/12/23 01:20:36;;;;;;;21.42;12.85;;;;;;;-1.58;100.00;101453.97;4998641;28;20049;-83
2021/12/23 01:23:04;;;;;;;29.02;15.63;;;;;;;-1.56;100.00;101447.25;4998584;28;20030;-83
2021/12/23 01:25:31;;;;;;;25.70;15.13;;;;;;;-1.57;100.00;101448.94;4998699;28;20046;-83
2021/12/23 01:27:58;;;;;;;25.95;14.63;;;;;;;-1.53;100.00;101458.53;4998324;28;20050;-83
2021/12/23 01:30:25;;;;;;;31.38;16.63;;;;;;;-1.55;100.00;101454.13;4998163;28;20053;-83
2021/12/23 01:32:53;;;;;;;31.70;16.63;;;;;;;-1.56;100.00;101458.41;4998674;28;20088;-83
2021/12/23 01:35:18;;;;;;;29.98;17.48;;;;;;;-1.40;100.00;101460.03;4998508;28;20026;-82
2021/12/23 01:37:44;;;;;;;36.70;19.90;;;;;;;-1.42;100.00;101457.38;4998254;28;20030;-83
2021/12/23 01:40:12;;;;;;;37.25;19.17;;;;;;;-1.34;100.00;101464.56;4998242;28;20485;-84
2021/12/23 01:42:38;;;;;;;38.60;22.20;;;;;;;-1.33;100.00;101456.97;4997995;28;20089;-83
2021/12/23 01:45:09;;;;;;;45.00;23.90;;;;;;;-1.40;100.00;101423.28;4998458;28;20022;-83
2021/12/23 01:47:35;;;;;;;52.00;25.67;;;;;;;-1.18;100.00;101472.19;4998152;28;20026;-83
2021/12/23 01:50:00;;;;;;;50.53;25.25;;;;;;;-1.14;100.00;101468.97;4998023;28;20033;-83
2021/12/23 01:52:25;;;;;;;53.25;28.52;;;;;;;-1.10;100.00;101476.91;4998416;28;20030;-83
2021/12/23 01:54:51;;;;;;;52.92;25.92;;;;;;;-1.08;100.00;101469.28;4998544;28;20034;-83
2021/12/23 01:57:17;;;;;;;55.88;27.05;;;;;;;-1.11;100.00;101459.75;4998238;28;20029;-83
2021/12/23 01:59:43;;;;;;;48.65;26.15;;;;;;;-1.01;100.00;101461.09;4998112;28;20572;-83
2021/12/23 02:02:09;;;;;;;56.92;27.05;;;;;;;-1.04;100.00;101461.81;4998744;28;20074;-83
2021/12/23 02:04:35;;;;;;;50.65;25.95;;;;;;;-1.10;100.00;101447.81;4997725;28;20454;-83
2021/12/23 02:07:00;;;;;;;52.95;28.15;;;;;;;-1.14;100.00;101449.34;4998053;28;20025;-83
2021/12/23 02:09:25;;;;;;;46.10;25.95;;;;;;;-1.09;100.00;101453.03;4996956;28;20457;-83
2021/12/23 02:11:51;;;;;;;55.80;26.33;;;;;;;-1.04;100.00;101463.50;4997870;28;20051;-83
2021/12/23 02:14:17;;;;;;;53.90;26.25;;;;;;;-1.10;100.00;101476.03;4998605;28;20023;-83
2021/12/23 02:16:43;;;;;;;53.20;27.95;;;;;;;-1.03;100.00;101473.81;4997922;28;20118;-84
2021/12/23 02:19:20;;;;;;;50.78;25.90;;;;;;;-0.96;100.00;101460.47;4998292;28;20042;-84
2021/12/23 02:21:47;;;;;;;53.58;27.08;;;;;;;-0.96;100.00;101457.91;4998232;28;20073;-83
2021/12/23 02:24:13;;;;;;;56.38;29.35;;;;;;;-0.98;100.00;101451.84;5002052;28;20030;-83
2021/12/23 02:26:41;;;;;;;58.72;29.10;;;;;;;-0.92;100.00;101450.38;5001765;28;20483;-83
2021/12/23 02:29:06;;;;;;;52.20;26.33;;;;;;;-0.93;100.00;101444.38;5002446;28;20101;-83
2021/12/23 02:31:32;;;;;;;53.22;26.50;;;;;;;-1.08;100.00;101423.13;5001127;28;20061;-83
2021/12/23 02:33:58;;;;;;;49.08;25.45;;;;;;;-0.93;100.00;101422.97;5001030;28;20026;-83
2021/12/23 02:36:23;;;;;;;52.33;25.50;;;;;;;-1.13;100.00;101399.84;5002459;28;20085;-83
2021/12/23 02:38:49;;;;;;;56.30;28.27;;;;;;;-1.00;100.00;101417.56;5001619;28;20070;-83
2021/12/23 02:41:14;;;;;;;56.25;27.95;;;;;;;-1.02;100.00;101411.47;4999959;28;20085;-83
2021/12/23 02:43:40;;;;;;;55.17;28.45;;;;;;;-1.07;100.00;101384.72;5000991;28;20040;-82
2021/12/23 02:46:05;;;;;;;61.60;28.65;;;;;;;-1.06;100.00;101383.91;5001165;28;20498;-83
2021/12/23 02:48:36;;;;;;;56.63;28.65;;;;;;;-1.15;100.00;101368.09;4999631;28;20018;-84
2021/12/23 02:51:05;;;;;;;57.50;27.35;;;;;;;-1.17;100.00;101369.72;5000138;28;20018;-83
2021/12/23 02:53:31;;;;;;;61.83;28.33;;;;;;;-1.18;100.00;101382.47;5000130;28;20022;-83
2021/12/23 02:55:59;;;;;;;57.10;26.92;;;;;;;-1.24;100.00;101369.38;4999135;28;20508;-83
2021/12/23 02:58:25;;;;;;;55.85;27.40;;;;;;;-1.18;100.00;101375.66;4999457;28;20053;-83
2021/12/23 03:00:52;;;;;;;62.67;28.63;;;;;;;-1.29;100.00;101340.06;5001804;28;20042;-84
2021/12/23 03:03:18;;;;;;;57.08;27.65;;;;;;;-1.23;100.00;101361.72;4999914;28;20474;-83
2021/12/23 03:05:51;;;;;;;52.10;26.52;;;;;;;-1.32;100.00;101345.94;5001134;28;20022;-83
2021/12/23 03:08:32;;;;;;;66.78;28.67;;;;;;;-1.31;100.00;101342.53;5000628;28;20038;-84
2021/12/23 03:10:58;;;;;;;58.03;27.85;;;;;;;-1.25;100.00;101353.09;5004181;23;20053;-47
2021/12/23 03:13:24;;;;;;;56.08;27.92;;;;;;;-1.29;100.00;101340.94;4997325;28;20026;-47
2021/12/23 03:15:49;;;;;;;55.92;27.85;;;;;;;-1.28;100.00;101342.72;4997567;28;20022;-46
2021/12/23 03:18:15;;;;;;;60.90;28.25;;;;;;;-1.29;100.00;101361.47;4997366;28;20019;-47
2021/12/23 03:20:40;;;;;;;60.47;29.38;;;;;;;-1.34;100.00;101337.28;4997109;28;20038;-47
2021/12/23 03:23:05;;;;;;;55.08;27.48;;;;;;;-1.27;100.00;101338.44;4997158;28;20487;-48
2021/12/23 03:25:31;;;;;;;56.78;26.58;;;;;;;-1.30;100.00;101339.19;4997200;28;20149;-50
2021/12/23 03:27:57;;;;;;;59.25;26.70;;;;;;;-1.32;100.00;101329.69;4997209;28;20389;-48
2021/12/23 03:30:22;;;;;;;58.10;28.05;;;;;;;-1.32;100.00;101340.81;4997163;28;20024;-47
2021/12/23 03:32:47;;;;;;;56.15;26.15;;;;;;;-1.33;100.00;101333.91;4997101;28;20078;-47
2021/12/23 03:35:13;;;;;;;59.22;27.63;;;;;;;-1.31;100.00;101327.16;4997045;28;20397;-47
2021/12/23 03:37:39;;;;;;;60.35;27.88;;;;;;;-1.37;100.00;101319.22;4996889;28;20085;-50
2021/12/23 03:40:05;;;;;;;59.67;27.67;;;;;;;-1.33;100.00;101328.78;4997098;28;20029;-47
2021/12/23 03:42:31;;;;;;;58.53;26.30;;;;;;;-1.36;100.00;101318.41;4996794;28;20096;-47
2021/12/23 03:44:56;;;;;;;54.47;26.15;;;;;;;-1.36;100.00;101322.66;4996785;28;20495;-47
2021/12/23 03:47:21;;;;;;;62.35;28.30;;;;;;;-1.34;100.00;101327.03;4996783;28;20026;-48
2021/12/23 03:49:47;;;;;;;58.38;27.42;;;;;;;-1.36;100.00;101322.66;4996677;28;20030;-47
2021/12/23 03:52:13;;;;;;;63.75;28.92;;;;;;;-1.41;100.00;101314.75;4996702;28;20034;-48
2021/12/23 03:54:38;;;;;;;59.10;27.08;;;;;;;-1.43;100.00;101314.66;4996649;28;20033;-47
2021/12/23 03:57:04;;;;;;;58.53;26.85;;;;;;;-1.52;100.00;101305.69;4996511;28;20446;-47
2021/12/23 03:59:29;;;;;;;58.78;25.10;;;;;;;-1.44;100.00;101310.34;4996506;28;20034;-48
2021/12/23 04:01:54;;;;;;;61.90;27.05;;;;;;;-1.42;100.00;101308.72;4996457;28;20037;-47
2021/12/23 04:04:20;;;;;;;65.97;28.50;;;;;;;-1.40;100.00;101290.88;4996467;28;20466;-47
2021/12/23 04:06:45;;;;;;;69.80;27.88;;;;;;;-1.38;100.00;101284.13;4996256;28;20030;-48
2021/12/23 04:09:10;;;;;;;62.75;26.35;;;;;;;-1.34;100.00;101272.31;4996455;28;20022;-48
2021/12/23 04:11:36;;;;;;;62.45;26.83;;;;;;;-1.33;100.00;101277.53;4996071;28;20157;-47
2021/12/23 04:14:01;;;;;;;59.90;27.65;;;;;;;-1.31;100.00;101267.34;4996379;28;20026;-48
2021/12/23 04:16:26;;;;;;;61.70;26.25;;;;;;;-1.28;100.00;101260.69;4996220;28;20026;-50
2021/12/23 04:18:54;;;;;;;63.20;26.30;;;;;;;-1.27;100.00;101256.41;4996077;28;20027;-48
2021/12/23 04:21:19;;;;;;;54.47;26.58;;;;;;;-1.22;100.00;101255.81;4995938;28;20041;-48
2021/12/23 04:23:45;;;;;;;64.50;27.10;;;;;;;-1.18;100.00;101257.72;4996137;28;20030;-49
2021/12/23 04:26:10;;;;;;;57.28;24.70;;;;;;;-1.12;100.00;101247.75;4996045;28;20439;-49
2021/12/23 04:28:45;;;;;;;59.40;25.50;;;;;;;-1.13;100.00;101251.13;4996272;28;20355;-47
2021/12/23 04:31:12;;;;;;;64.93;27.58;;;;;;;-1.11;100.00;101246.91;4996165;28;20033;-47
2021/12/23 04:33:38;;;;;;;56.30;25.60;;;;;;;-1.06;100.00;101242.88;4995855;28;20028;-47
2021/12/23 04:36:03;;;;;;;57.88;24.48;;;;;;;-1.02;100.00;101249.91;4995882;28;20085;-47
2021/12/23 04:38:29;;;;;;;57.05;25.45;;;;;;;-1.00;100.00;101243.16;4995849;28;20026;-47
2021/12/23 04:40:54;;;;;;;56.25;25.13;;;;;;;-0.99;100.00;101255.16;4995897;28;20034;-47
2021/12/23 04:43:19;;;;;;;56.35;24.77;;;;;;;-0.98;100.00;101251.78;4995781;28;20088;-48
2021/12/23 04:45:45;;;;;;;54.63;25.67;;;;;;;-0.97;100.00;101239.84;4995282;28;20026;-47
2021/12/23 04:48:10;;;;;;;53.05;24.20;;;;;;;-0.90;100.00;101238.41;4995779;28;20014;-47
2021/12/23 04:50:36;;;;;;;61.28;26.30;;;;;;;-0.87;100.00;101230.84;4995604;28;20499;-47
2021/12/23 04:53:01;;;;;;;60.65;26.95;;;;;;;-0.87;100.00;101234.28;4995583;28;20473;-50
2021/12/23 04:55:28;;;;;;;54.03;24.98;;;;;;;-0.88;100.00;101221.41;4996306;28;20110;-47
2021/12/23 04:57:54;;;;;;;53.95;26.42;;;;;;;-0.89;100.00;101212.84;4995760;28;20025;-47
2021/12/23 05:00:22;;;;;;;57.88;26.08;;;;;;;-0.86;100.00;101209.53;4995708;28;20026;-47
2021/12/23 05:02:48;;;;;;;57.33;26.40;;;;;;;-0.87;100.00;101212.88;4995515;28;20030;-48
2021/12/23 05:05:15;;;;;;;63.97;26.77;;;;;;;-0.83;100.00;101212.22;4995477;28;20390;-47
2021/12/23 05:07:40;;;;;;;57.03;24.38;;;;;;;-0.82;100.00;101226.81;4995252;28;20026;-48
2021/12/23 05:10:08;;;;;;;58.40;26.20;;;;;;;-0.79;100.00;101216.66;4995024;28;20034;-47
2021/12/23 05:12:36;;;;;;;60.17;26.40;;;;;;;-0.78;100.00;101213.28;4995271;28;20042;-49
2021/12/23 05:15:02;;;;;;;60.03;26.55;;;;;;;-0.76;100.00;101216.81;4995147;28;20077;-48
2021/12/23 05:17:27;;;;;;;60.70;26.27;;;;;;;-0.74;100.00;101215.19;4995195;28;20061;-49
2021/12/23 05:19:53;;;;;;;50.80;23.92;;;;;;;-0.72;100.00;101216.13;4995226;28;20122;-48
2021/12/23 05:22:18;;;;;;;52.45;24.77;;;;;;;-0.69;100.00;101224.84;4994898;28;20023;-48
2021/12/23 05:24:43;;;;;;;55.00;24.30;;;;;;;-0.62;100.00;101216.59;4995071;28;20029;-48
2021/12/23 05:27:09;;;;;;;53.85;25.08;;;;;;;-0.60;100.00;101225.22;4995089;28;20014;-47
2021/12/23 05:29:34;;;;;;;52.45;24.67;;;;;;;-0.59;100.00;101216.72;4995033;28;20033;-48
2021/12/23 05:32:00;;;;;;;56.10;25.10;;;;;;;-0.67;100.00;101191.53;4994890;28;20121;-48
2021/12/23 05:34:25;;;;;;;59.60;25.38;;;;;;;-0.61;100.00;101199.50;4977544;28;20173;-48
2021/12/23 05:36:50;;;;;;;47.55;23.58;;;;;;;-0.58;100.00;101212.44;4994843;28;20105;-48
2021/12/23 05:39:16;;;;;;;57.65;24.92;;;;;;;-0.58;100.00;101195.38;4994939;28;20371;-48
2021/12/23 05:41:41;;;;;;;51.63;23.85;;;;;;;-0.54;100.00;101204.06;4994782;28;20023;-48
2021/12/23 05:44:07;;;;;;;52.90;23.85;;;;;;;-0.56;100.00;101195.44;4994781;28;20022;-49
2021/12/23 05:46:32;;;;;;;52.42;24.08;;;;;;;-0.52;100.00;101197.34;4994752;28;20045;-48
2021/12/23 05:48:58;;;;;;;59.67;25.33;;;;;;;-0.48;100.00;101186.38;4994534;28;20030;-48
2021/12/23 05:51:23;;;;;;;52.47;24.25;;;;;;;-0.55;100.00;101167.25;4994640;28;20060;-49
2021/12/23 05:53:49;;;;;;;52.78;24.38;;;;;;;-0.50;100.00;101180.28;4994579;28;20053;-48
2021/12/23 05:56:14;;;;;;;53.53;24.63;;;;;;;-0.46;100.00;101192.44;4994428;28;20026;-47
2021/12/23 05:58:39;;;;;;;52.95;23.48;;;;;;;-0.45;100.00;101183.06;4993917;28;20169;-48
2021/12/23 06:01:05;;;;;;;53.22;23.70;;;;;;;-0.40;100.00;101182.44;4994483;28;20486;-49
2021/12/23 06:03:31;;;;;;;53.13;24.65;;;;;;;-0.39;100.00;101189.28;4993312;28;20040;-48
2021/12/23 06:05:57;;;;;;;57.92;23.83;;;;;;;-0.33;100.00;101179.28;4994539;28;20030;-48
2021/12/23 06:08:22;;;;;;;52.58;23.70;;;;;;;-0.31;100.00;101167.38;4994389;28;20025;-48
2021/12/23 06:10:47;;;;;;;59.03;24.63;;;;;;;-0.28;100.00;101167.50;4994055;28;20525;-48
2021/12/23 06:13:13;;;;;;;48.60;23.08;;;;;;;-0.24;100.00;101153.97;4994429;28;20405;-48
2021/12/23 06:15:38;;;;;;;47.88;23.23;;;;;;;-0.24;100.00;101151.41;4994423;28;20043;-48
2021/12/23 06:18:04;;;;;;;47.47;22.80;;;;;;;-0.24;100.00;101148.84;4994287;28;20035;-48
2021/12/23 06:20:29;;;;;;;50.58;22.40;;;;;;;-0.21;100.00;101141.28;4986011;28;20037;-48
2021/12/23 06:22:55;;;;;;;52.10;23.88;;;;;;;-0.23;100.00;101135.19;4974915;28;20542;-48
2021/12/23 06:25:20;;;;;;;53.33;23.73;;;;;;;-0.25;100.00;101136.84;4972453;28;20478;-48
2021/12/23 06:27:46;;;;;;;50.60;22.70;;;;;;;-0.26;100.00;101140.22;4989537;28;20026;-48
2021/12/23 06:30:23;;;;;;;50.97;22.77;;;;;;;-0.20;100.00;101127.59;4978638;28;20110;-48
2021/12/23 06:32:52;;;;;;;48.63;22.70;;;;;;;-0.17;100.00;101139.69;4977291;28;20030;-48
2021/12/23 06:35:18;;;;;;;57.45;23.67;;;;;;;-0.24;100.00;101138.56;4981501;28;20026;-48
2021/12/23 06:37:44;;;;;;;44.80;22.10;;;;;;;-0.24;100.00;101143.69;4973632;28;20377;-50
2021/12/23 06:40:11;;;;;;;51.30;22.92;;;;;;;-0.23;100.00;101135.19;4983194;28;20466;-49
2021/12/23 06:42:36;;;;;;;44.20;20.65;;;;;;;-0.22;100.00;101142.09;4975083;28;20496;-49
2021/12/23 06:45:03;;;;;;;49.13;24.73;;;;;;;-0.23;100.00;101135.19;4992822;28;20034;-47
2021/12/23 06:47:29;;;;;;;52.25;22.90;;;;;;;-0.23;100.00;101135.19;4985372;28;20019;-48
2021/12/23 06:49:54;;;;;;;49.75;22.80;;;;;;;-0.25;100.00;101125.69;4986840;28;20475;-49
2021/12/23 06:52:20;;;;;;;50.50;22.35;;;;;;;-0.21;100.00;101133.56;4982949;28;20474;-48
2021/12/23 06:54:52;;;;;;;48.45;21.92;;;;;;;-0.20;100.00;101132.72;4987188;28;20027;-48
2021/12/23 06:57:18;;;;;;;50.00;22.60;;;;;;;-0.20;100.00;101119.88;4977800;28;20113;-48
2021/12/23 06:59:43;;;;;;;53.17;23.45;;;;;;;-0.16;100.00;101132.03;4988299;28;20158;-48
2021/12/23 07:02:08;;;;;;;56.45;23.77;;;;;;;-0.22;100.00;101118.97;4983313;28;20026;-49
2021/12/23 07:04:35;;;;;;;49.97;21.63;;;;;;;-0.15;100.00;101132.91;4981532;28;20023;-48
2021/12/23 07:07:11;;;;;;;53.10;24.73;;;;;;;-0.16;100.00;101137.16;4990236;28;20500;-49
2021/12/23 07:09:42;;;;;;;45.35;21.92;;;;;;;-0.09;100.00;101134.06;4981614;28;20109;-48
2021/12/23 07:12:09;;;;;;;50.03;23.45;;;;;;;-0.08;100.00;101124.66;4988473;28;20054;-48
2021/12/23 07:14:36;;;;;;;50.55;22.45;;;;;;;-0.05;100.00;101133.34;4990532;28;20032;-47
2021/12/23 07:17:01;;;;;;;45.40;21.05;;;;;;;-0.14;100.00;101115.00;4981157;28;20027;-50
2021/12/23 07:19:27;;;;;;;48.38;22.35;;;;;;;-0.03;100.00;101134.28;4981635;28;20037;-48
2021/12/23 07:21:52;;;;;;;53.03;22.58;;;;;;;-0.03;100.00;101134.28;4981358;28;20473;-48
2021/12/23 07:24:18;;;;;;;48.67;22.35;;;;;;;-0.06;100.00;101129.03;4996037;28;20439;-48
2021/12/23 07:26:44;;;;;;;51.42;22.95;;;;;;;-0.12;100.00;101118.50;4995938;28;20049;-50
2021/12/23 07:29:09;;;;;;;49.85;22.83;;;;;;;-0.06;100.00;101121.31;4993878;28;20014;-49
2021/12/23 07:31:35;;;;;;;50.58;23.65;;;;;;;-0.05;100.00;101110.25;4990459;28;20078;-48
2021/12/23 07:34:00;;;;;;;51.78;21.48;;;;;;;-0.01;100.00;101101.84;4988439;28;20368;-48
2021/12/23 07:36:27;;;;;;;52.40;23.95;;;;;;;0.02;100.00;101110.47;4991012;28;20030;-48
2021/12/23 07:38:54;;;;;;;54.45;23.85;;;;;;;-0.05;100.00;101107.66;4989461;28;20030;-48
2021/12/23 07:41:20;;;;;;;54.78;24.60;;;;;;;-0.06;100.00;101098.22;4981968;28;20035;-48
2021/12/23 07:43:57;;;;;;;54.28;23.50;;;;;;;-0.01;100.00;101119.81;4990006;28;20040;-48
2021/12/23 07:46:24;;;;;;;50.75;22.60;;;;;;;0.02;100.00;101111.34;4986384;28;20517;-48
2021/12/23 07:48:50;;;;;;;51.78;23.42;;;;;;;0.08;100.00;101111.56;4989541;28;20037;-48
2021/12/23 07:51:15;;;;;;;55.20;24.60;;;;;;;0.08;100.00;101101.28;4987216;28;20026;-48
2021/12/23 07:53:40;;;;;;;47.83;21.30;;;;;;;0.09;100.00;101112.44;4995658;28;20030;-47
2021/12/23 07:56:06;;;;;;;53.72;24.08;;;;;;;0.05;100.00;101100.28;4995824;28;20458;-47
2021/12/23 07:58:31;;;;;;;49.28;23.88;;;;;;;0.10;100.00;101103.91;4996137;28;20540;-48
2021/12/23 08:00:57;;;;;;;54.38;23.27;;;;;;;0.09;100.00;101103.03;4994216;28;20113;-49
2021/12/23 08:03:23;;;;;;;63.40;25.25;;;;;;;0.10;100.00;101088.50;4989764;28;20023;-47
2021/12/23 08:05:49;;;;;;;56.55;24.70;;;;;;;0.08;100.00;101082.44;4986346;28;20044;-48
2021/12/23 08:08:14;;;;;;;54.20;24.17;;;;;;;0.09;100.00;101073.91;4991592;28;20482;-48
2021/12/23 08:10:40;;;;;;;48.33;22.50;;;;;;;0.15;100.00;101076.72;4994107;28;20077;-49
2021/12/23 08:13:07;;;;;;;55.30;25.25;;;;;;;0.14;100.00;101074.94;4989537;28;20064;-48
2021/12/23 08:15:33;;;;;;;53.17;23.80;;;;;;;0.11;100.00;101078.28;4983141;28;20022;-48
2021/12/23 08:17:58;;;;;;;49.80;24.52;;;;;;;0.08;100.00;101069.59;4989197;28;20035;-48
2021/12/23 08:20:24;;;;;;;56.83;25.20;;;;;;;0.04;100.00;101073.72;4986211;28;20433;-48
2021/12/23 08:22:49;;;;;;;50.25;23.13;;;;;;;0.10;100.00;101073.09;4984727;28;20482;-49
2021/12/23 08:25:15;;;;;;;55.58;24.63;;;;;;;0.08;100.00;101074.75;4977282;28;20113;-48
2021/12/23 08:27:42;;;;;;;53.80;22.95;;;;;;;0.09;100.00;101071.31;4978523;28;20386;-49
2021/12/23 08:30:10;;;;;;;55.08;25.65;;;;;;;0.13;100.00;101073.19;4986060;28;20034;-48
2021/12/23 08:32:35;;;;;;;52.05;23.85;;;;;;;0.14;100.00;101067.25;4988373;28;20022;-47
2021/12/23 08:35:01;;;;;;;50.75;22.67;;;;;;;0.10;100.00;101062.81;4991186;28;20026;-48
2021/12/23 08:37:27;;;;;;;54.25;23.33;;;;;;;0.16;100.00;101068.19;4995189;28;20428;-47
2021/12/23 08:39:53;;;;;;;49.33;22.90;;;;;;;0.20;100.00;101064.91;4992061;28;20030;-47
2021/12/23 08:42:19;;;;;;;53.55;24.42;;;;;;;0.23;100.00;101071.03;4988291;28;20063;-48
2021/12/23 08:44:44;;;;;;;46.60;23.05;;;;;;;0.26;100.00;101068.56;4990416;28;20072;-48
2021/12/23 08:47:11;;;;;;;50.40;24.13;;;;;;;0.26;100.00;101060.88;4983069;28;20049;-50
2021/12/23 08:49:37;;;;;;;50.47;24.65;;;;;;;0.28;100.00;101048.09;4992511;28;20022;-48
2021/12/23 08:52:03;;;;;;;47.40;22.73;;;;;;;0.38;100.00;101065.56;4988219;28;20466;-47
2021/12/23 08:54:28;;;;;;;49.00;23.08;;;;;;;0.42;100.00;101057.16;4990048;28;21627;-53
2021/12/23 08:56:54;;;;;;;46.35;22.55;;;;;;;0.43;100.00;101069.19;4986169;28;20022;-53
2021/12/23 08:59:19;;;;;;;44.13;21.83;;;;;;;0.48;100.00;101063.38;4983985;28;20030;-53
2021/12/23 09:01:46;;;;;;;50.17;23.52;;;;;;;0.50;100.00;101055.72;4984367;28;20082;-53
2021/12/23 09:04:12;;;;;;;46.85;22.70;;;;;;;0.53;100.00;101055.81;4980460;28;20503;-52
2021/12/23 09:06:37;;;;;;;47.78;21.75;;;;;;;0.56;100.00;101050.78;4984364;28;20030;-52
2021/12/23 09:09:04;;;;;;;44.97;22.00;;;;;;;0.62;100.00;101055.28;4983572;28;20370;-53
2021/12/23 09:11:29;;;;;;;42.47;20.95;;;;;;;0.62;100.00;101055.28;4988623;28;20054;-52
2021/12/23 09:13:55;;;;;;;48.90;22.35;;;;;;;0.63;100.00;101052.78;4986196;28;20018;-53
2021/12/23 09:16:20;;;;;;;43.97;23.17;;;;;;;0.67;100.00;101059.78;4991755;28;20084;-52
2021/12/23 09:18:45;;;;;;;39.50;21.00;;;;;;;0.77;100.00;101066.97;4980969;28;20434;-52
2021/12/23 09:21:12;;;;;;;38.90;20.98;;;;;;;0.78;100.00;101061.00;4990901;28;20060;-53
2021/12/23 09:23:39;;;;;;;43.75;21.77;;;;;;;0.84;100.00;101053.50;4994703;28;20426;-58
2021/12/23 09:26:09;;;;;;;43.22;21.92;;;;;;;0.81;100.00;101031.94;4991129;28;20022;-52
2021/12/23 09:28:53;;;;;;;45.33;21.63;;;;;;;0.94;100.00;101037.56;4989266;28;20421;-51
2021/12/23 09:34:04;;;;;;;44.20;21.08;;;;;;;0.98;100.00;101020.53;4981949;28;20101;-52
2021/12/23 09:36:30;;;;;;;46.03;22.98;;;;;;;0.97;100.00;101012.75;4988175;28;20030;-53
2021/12/23 09:38:56;;;;;;;42.58;20.88;;;;;;;1.07;100.00;101017.38;4981536;28;20031;-53
2021/12/23 09:41:23;;;;;;;39.92;20.25;;;;;;;1.17;100.00;101012.56;4982453;28;20043;-52
2021/12/23 09:43:50;;;;;;;40.75;20.00;;;;;;;1.22;100.00;101016.16;4975670;28;20036;-53
2021/12/23 09:46:18;;;;;;;41.22;20.63;;;;;;;1.29;100.00;101018.09;4983163;28;20056;-53
2021/12/23 09:48:46;;;;;;;43.80;21.80;;;;;;;1.33;100.00;101021.66;4979823;28;20034;-54
2021/12/23 09:51:14;;;;;;;42.05;20.10;;;;;;;1.43;100.00;101026.28;4984133;28;20080;-53
2021/12/23 09:53:43;;;;;;;41.33;20.08;;;;;;;1.54;100.00;101030.06;4981929;28;20445;-51
2021/12/23 09:56:08;;;;;;;40.20;20.10;;;;;;;1.72;100.00;101030.59;4982074;28;20537;-50
2021/12/23 09:58:34;;;;;;;35.22;19.35;;;;;;;1.81;100.00;101020.56;4978378;28;20031;-50
2021/12/23 10:01:00;;;;;;;40.08;19.58;;;;;;;1.96;100.00;101029.56;4978844;28;20504;-52
2021/12/23 10:03:27;;;;;;;41.17;20.45;;;;;;;2.06;100.00;101016.13;4980958;28;20038;-52
2021/12/23 10:05:53;;;;;;;42.17;19.65;;;;;;;2.28;100.00;101028.78;4982533;28;20030;-51
2021/12/23 10:08:20;;;;;;;35.35;19.48;;;;;;;2.38;100.00;101015.34;4983555;28;20064;-52
2021/12/23 10:10:54;;;;;;;;;;;;;;;;;;;;;
2021/12/23 10:38:09;;;;;;;35.85;18.23;;;;;;;2.89;100.00;100973.66;4987340;28;20040;-48
2021/12/23 10:40:36;;;;;;;34.75;18.30;;;;;;;2.92;100.00;100969.44;4984961;28;20115;-51
2021/12/23 10:43:03;;;;;;;32.42;17.60;;;;;;;2.88;100.00;100962.47;4988028;28;20036;-52
2021/12/23 10:45:49;;;;;;;35.60;19.20;;;;;;;2.96;100.00;100949.75;4988155;28;20038;-52
2021/12/23 10:48:16;;;;;;;36.40;18.95;;;;;;;2.94;100.00;100941.97;4979976;28;20049;-50
2021/12/23 10:50:46;;;;;;;30.08;17.33;;;;;;;3.00;100.00;100938.66;4977877;28;20040;-50
2021/12/23 10:59:27;;;;;;;36.55;19.25;;;;;;;3.43;100.00;100928.47;4983575;28;20048;-49
2021/12/23 11:02:09;;;;;;;30.70;17.58;;;;;;;3.54;100.00;100914.09;4983742;28;20033;-50
2021/12/23 11:04:51;;;;;;;31.50;18.73;;;;;;;3.62;100.00;100909.91;4989928;28;20061;-50
2021/12/23 11:07:24;;;;;;;34.58;17.77;;;;;;;3.71;100.00;100915.28;4984894;28;20073;-49
2021/12/23 11:10:21;;;;;;;31.25;17.55;;;;;;;3.78;100.00;100909.38;4992621;28;20029;-50
2021/12/23 11:37:47;;;;;;;29.27;16.75;;;;;;;4.49;100.00;100841.75;4970483;28;20078;-48
2021/12/23 11:40:36;;;;;;;29.77;17.30;;;;;;;4.45;100.00;100830.47;4963907;28;20039;-51
2021/12/23 11:45:33;;;;;;;29.15;16.88;;;;;;;4.78;100.00;100818.91;4967772;28;20046;-48
2021/12/23 11:47:59;;;;;;;27.90;16.23;;;;;;;5.22;100.00;100807.41;4968450;28;20471;-48
2021/12/23 11:50:32;;;;;;;25.30;15.60;;;;;;;6.02;100.00;100799.69;4970393;28;20058;-48
2021/12/23 11:52:58;;;;;;;28.23;16.08;;;;;;;5.96;100.00;100808.31;4984793;28;20073;-48
2021/12/23 11:55:24;;;;;;;30.48;16.90;;;;;;;5.86;100.00;100808.16;4986153;28;20062;-50
2021/12/23 11:57:52;;;;;;;26.52;15.98;;;;;;;5.94;100.00;100801.34;4982455;28;20038;-48
2021/12/23 12:00:32;;;;;;;30.02;17.55;;;;;;;6.44;100.00;100800.09;4982245;28;20042;-47
2021/12/23 12:03:02;;;;;;;24.73;16.20;;;;;;;6.69;100.00;100795.06;4973519;28;20060;-50
2021/12/23 12:05:27;;;;;;;27.67;17.08;;;;;;;6.89;100.00;100793.44;4979254;28;20022;-48
2021/12/23 12:08:15;;;;;;;26.52;16.80;;;;;;;6.14;100.00;100797.22;4990793;28;20022;-48
2021/12/23 12:10:42;;;;;;;29.40;17.35;;;;;;;5.65;100.00;100799.28;4988565;28;20129;-47
2021/12/23 12:13:14;;;;;;;32.88;18.80;;;;;;;5.39;100.00;100798.13;4989589;28;20046;-47